createdAt,value
2023-01-13T00:01:27.047Z,9.20
2023-01-13T00:03:54.075Z,9.20
2023-01-13T00:06:23.100Z,9.20
2023-01-13T00:08:51.252Z,9.20
2023-01-13T00:11:19.623Z,9.28
2023-01-13T00:13:46.785Z,9.30
2023-01-13T00:16:16.228Z,9.30
2023-01-13T00:18:43.535Z,9.30
2023-01-13T00:21:14.547Z,9.36
2023-01-13T00:23:42.397Z,9.40
2023-01-13T00:26:13.182Z,9.38
2023-01-13T00:28:40.127Z,9.40
2023-01-13T00:31:08.700Z,9.40
2023-01-13T00:33:36.471Z,9.42
2023-01-13T00:36:05.171Z,9.46
2023-01-13T00:38:33.114Z,9.50
2023-01-13T00:41:05.167Z,9.50
2023-01-13T00:43:34.070Z,9.50
2023-01-13T00:46:02.085Z,9.50
2023-01-13T00:48:30.328Z,9.50
2023-01-13T00:51:01.513Z,9.50
2023-01-13T00:53:30.011Z,9.50
2023-01-13T00:56:01.369Z,9.50
2023-01-13T00:58:30.847Z,9.50
2023-01-13T01:01:05.395Z,9.50
2023-01-13T01:03:32.538Z,9.50
2023-01-13T01:06:06.386Z,9.50
2023-01-13T01:08:34.814Z,9.50
2023-01-13T01:11:06.813Z,9.50
2023-01-13T01:13:34.507Z,9.50
2023-01-13T01:16:07.083Z,9.50
2023-01-13T01:18:35.728Z,9.50
2023-01-13T01:21:03.411Z,9.50
2023-01-13T01:23:31.172Z,9.42
2023-01-13T01:26:10.920Z,9.42
2023-01-13T01:28:38.803Z,9.46
2023-01-13T01:31:13.563Z,9.46
2023-01-13T01:33:43.397Z,9.50
2023-01-13T01:36:12.006Z,9.50
2023-01-13T01:38:38.972Z,9.50
2023-01-13T01:41:06.804Z,9.50
2023-01-13T01:44:04.487Z,9.50
2023-01-13T01:46:39.920Z,9.50
2023-01-13T01:49:25.726Z,9.50
2023-01-13T01:51:57.757Z,9.50
2023-01-13T01:54:34.032Z,9.50
2023-01-13T01:57:01.276Z,9.50
2023-01-13T01:59:31.639Z,9.50
2023-01-13T02:01:59.087Z,9.56
2023-01-13T02:04:30.716Z,9.60
2023-01-13T02:06:58.114Z,9.60
2023-01-13T02:09:26.189Z,9.60
2023-01-13T02:12:11.440Z,9.60
2023-01-13T02:14:40.980Z,9.60
2023-01-13T02:17:34.794Z,9.60
2023-01-13T02:20:39.027Z,9.60
2023-01-13T02:24:00.760Z,9.66
2023-01-13T02:26:48.747Z,9.70
2023-01-13T02:30:08.048Z,9.70
2023-01-13T02:32:49.632Z,9.70
2023-01-13T02:36:04.039Z,9.70
2023-01-13T02:38:39.752Z,9.70
2023-01-13T02:41:52.663Z,9.72
2023-01-13T02:44:25.332Z,9.80
2023-01-13T02:46:58.045Z,9.80
2023-01-13T02:49:54.260Z,9.80
2023-01-13T02:52:31.664Z,9.80
2023-01-13T02:55:11.508Z,9.80
2023-01-13T02:57:41.162Z,9.80
2023-01-13T03:00:11.355Z,9.80
2023-01-13T03:02:39.044Z,9.80
2023-01-13T03:05:06.361Z,9.80
2023-01-13T03:08:09.601Z,9.80
2023-01-13T03:11:18.359Z,9.80
2023-01-13T03:13:59.384Z,9.80
2023-01-13T03:17:12.169Z,9.80
2023-01-13T03:19:53.244Z,9.80
2023-01-13T03:22:45.174Z,9.80
2023-01-13T03:25:25.748Z,9.78
2023-01-13T03:28:01.624Z,9.78
2023-01-13T03:30:42.950Z,9.80
2023-01-13T03:33:20.048Z,9.80
2023-01-13T03:35:51.736Z,9.80
2023-01-13T03:38:28.385Z,9.78
2023-01-13T03:40:59.688Z,9.80
2023-01-13T03:43:50.870Z,9.80
2023-01-13T03:46:24.747Z,9.80
2023-01-13T03:48:57.327Z,9.80
2023-01-13T03:51:28.899Z,9.80
2023-01-13T03:53:59.712Z,9.80
2023-01-13T03:56:36.492Z,9.80
2023-01-13T03:59:08.099Z,9.80
2023-01-13T04:01:44.957Z,9.80
2023-01-13T04:04:35.114Z,9.80
2023-01-13T04:07:26.772Z,9.80
2023-01-13T04:09:57.062Z,9.80
2023-01-13T04:12:54.323Z,9.80
2023-01-13T04:15:25.440Z,9.70
2023-01-13T04:17:53.661Z,9.70
2023-01-13T04:20:21.601Z,9.70
2023-01-13T04:22:48.351Z,9.60
2023-01-13T04:25:15.286Z,9.60
2023-01-13T04:27:42.057Z,9.60
2023-01-13T04:30:09.698Z,9.60
2023-01-13T04:32:36.535Z,9.60
2023-01-13T04:35:03.886Z,9.60
2023-01-13T04:37:30.611Z,9.62
2023-01-13T04:39:58.540Z,9.70
2023-01-13T04:42:25.331Z,9.70
2023-01-13T04:44:52.175Z,9.70
2023-01-13T04:47:18.881Z,9.70
2023-01-13T04:49:45.756Z,9.60
2023-01-13T04:52:12.802Z,9.60
2023-01-13T04:54:39.552Z,9.60
2023-01-13T04:57:06.344Z,9.60
2023-01-13T04:59:34.607Z,9.52
2023-01-13T05:02:01.737Z,9.50
2023-01-13T05:04:28.855Z,9.50
2023-01-13T05:06:55.648Z,9.50
2023-01-13T05:09:22.371Z,9.50
2023-01-13T05:12:07.816Z,9.50
2023-01-13T05:14:53.239Z,9.50
2023-01-13T05:17:22.811Z,9.50
2023-01-13T05:19:49.792Z,9.40
2023-01-13T05:22:35.333Z,9.40
2023-01-13T05:25:20.890Z,9.40
2023-01-13T05:27:56.563Z,9.32
2023-01-13T05:30:29.751Z,9.30
2023-01-13T05:32:57.252Z,9.30
2023-01-13T05:35:24.774Z,9.30
2023-01-13T05:37:51.911Z,9.30
2023-01-13T05:40:37.970Z,9.34
2023-01-13T05:43:20.420Z,9.40
2023-01-13T05:46:05.363Z,9.40
2023-01-13T05:48:38.588Z,9.40
2023-01-13T05:51:08.395Z,9.40
2023-01-13T05:53:35.603Z,9.40
2023-01-13T05:56:07.208Z,9.50
2023-01-13T05:58:34.827Z,9.50
2023-01-13T06:01:07.280Z,9.50
2023-01-13T06:03:34.893Z,9.50
2023-01-13T06:06:04.076Z,9.50
2023-01-13T06:08:31.922Z,9.50
2023-01-13T06:10:58.668Z,9.56
2023-01-13T06:13:25.847Z,9.60
2023-01-13T06:15:56.948Z,9.60
2023-01-13T06:18:24.233Z,9.60
2023-01-13T06:20:51.071Z,9.60
2023-01-13T06:23:17.826Z,9.60
2023-01-13T06:25:50.715Z,9.64
2023-01-13T06:28:17.542Z,9.70
2023-01-13T06:30:50.936Z,9.70
2023-01-13T06:33:27.508Z,9.70
2023-01-13T06:35:58.355Z,9.70
2023-01-13T06:38:28.960Z,9.70
2023-01-13T06:40:55.808Z,9.70
2023-01-13T06:43:22.607Z,9.70
2023-01-13T06:45:50.977Z,9.70
2023-01-13T06:48:20.171Z,9.60
2023-01-13T06:50:46.902Z,9.60
2023-01-13T06:53:13.712Z,9.60
2023-01-13T06:55:40.515Z,9.60
2023-01-13T06:58:07.824Z,9.54
2023-01-13T07:00:37.816Z,9.50
2023-01-13T07:03:10.458Z,9.42
2023-01-13T07:05:37.856Z,9.40
2023-01-13T07:08:04.981Z,9.30
2023-01-13T07:10:32.647Z,9.30
2023-01-13T07:13:22.060Z,9.20
2023-01-13T07:15:59.442Z,9.22
2023-01-13T07:18:28.536Z,9.20
2023-01-13T07:20:57.627Z,9.24
2023-01-13T07:23:26.885Z,9.30
2023-01-13T07:25:56.344Z,9.24
2023-01-13T07:28:23.772Z,9.24
2023-01-13T07:30:50.615Z,9.24
2023-01-13T07:33:18.648Z,9.30
2023-01-13T07:35:48.131Z,9.30
2023-01-13T07:38:16.138Z,9.30
2023-01-13T07:40:42.900Z,9.30
2023-01-13T07:43:30.843Z,9.38
2023-01-13T07:45:59.184Z,9.40
2023-01-13T07:48:27.251Z,9.40
2023-01-13T07:50:54.953Z,9.48
2023-01-13T07:53:22.819Z,9.50
2023-01-13T07:55:49.528Z,9.60
2023-01-13T07:58:16.300Z,9.60
2023-01-13T08:00:43.030Z,9.64
2023-01-13T08:03:09.847Z,9.70
2023-01-13T08:05:36.752Z,9.70
2023-01-13T08:08:03.450Z,9.78
2023-01-13T08:10:30.193Z,9.80
2023-01-13T08:13:15.575Z,9.80
2023-01-13T08:15:42.618Z,9.80
2023-01-13T08:18:09.409Z,9.80
2023-01-13T08:20:36.617Z,9.82
2023-01-13T08:23:05.558Z,9.90
2023-01-13T08:25:34.094Z,9.98
2023-01-13T08:28:00.875Z,10.00
2023-01-13T08:30:28.289Z,10.10
2023-01-13T08:32:55.244Z,10.10
2023-01-13T08:35:22.762Z,10.10
2023-01-13T08:37:50.255Z,10.20
2023-01-13T08:40:18.221Z,10.22
2023-01-13T08:42:47.032Z,10.30
2023-01-13T08:45:15.434Z,10.40
2023-01-13T08:47:42.191Z,10.42
2023-01-13T08:50:10.449Z,10.50
2023-01-13T08:52:37.244Z,10.50
2023-01-13T08:55:04.286Z,10.56
2023-01-13T08:57:31.070Z,10.60
2023-01-13T08:59:57.906Z,10.60
2023-01-13T09:02:25.815Z,10.70
2023-01-13T09:04:53.640Z,10.78
2023-01-13T09:07:20.515Z,10.80
2023-01-13T09:09:47.400Z,10.80
2023-01-13T09:12:34.760Z,10.80
2023-01-13T09:15:03.247Z,10.80
2023-01-13T09:17:30.046Z,10.80
2023-01-13T09:19:56.759Z,10.90
2023-01-13T09:22:27.149Z,10.90
2023-01-13T09:24:55.268Z,10.90
2023-01-13T09:27:23.133Z,10.90
2023-01-13T09:29:50.033Z,10.90
2023-01-13T09:32:16.885Z,10.90
2023-01-13T09:35:02.418Z,10.90
2023-01-13T09:37:30.032Z,10.96
2023-01-13T09:39:57.417Z,11.00
2023-01-13T09:42:58.492Z,11.10
2023-01-13T09:45:41.687Z,11.16
2023-01-13T09:48:20.280Z,11.20
2023-01-13T09:50:52.837Z,11.36
2023-01-13T09:53:25.780Z,11.40
2023-01-13T09:55:53.161Z,11.48
2023-01-13T09:58:20.182Z,11.50
2023-01-13T10:00:50.698Z,11.50
2023-01-13T10:03:32.118Z,11.60
2023-01-13T10:06:26.988Z,11.70
2023-01-13T10:08:53.813Z,11.80
2023-01-13T10:11:50.873Z,11.90
2023-01-13T10:14:28.821Z,12.10
2023-01-13T10:17:51.330Z,12.24
2023-01-13T10:20:24.711Z,12.50
2023-01-13T10:23:27.165Z,12.68
2023-01-13T10:26:21.147Z,12.82
2023-01-13T10:28:52.857Z,13.00
2023-01-13T10:31:22.233Z,13.10
2023-01-13T10:33:57.663Z,13.20
2023-01-13T10:36:24.724Z,13.30
2023-01-13T10:38:52.072Z,13.40
2023-01-13T10:41:26.115Z,13.50
2023-01-13T10:43:52.741Z,13.50
2023-01-13T10:46:20.683Z,13.50
2023-01-13T10:49:23.609Z,13.58
2023-01-13T10:51:50.319Z,13.60
2023-01-13T10:54:20.343Z,13.60
2023-01-13T10:56:47.098Z,13.66
2023-01-13T10:59:19.717Z,13.70
2023-01-13T11:02:19.821Z,13.80
2023-01-13T11:05:09.531Z,13.80
2023-01-13T11:07:45.934Z,13.80
2023-01-13T11:10:27.390Z,13.84
2023-01-13T11:12:54.654Z,13.90
2023-01-13T11:15:34.086Z,13.86
2023-01-13T11:18:09.840Z,13.90
2023-01-13T11:20:41.312Z,13.90
2023-01-13T11:23:27.600Z,13.90
2023-01-13T11:26:01.230Z,14.00
2023-01-13T11:28:45.572Z,14.06
2023-01-13T11:31:22.758Z,14.10
2023-01-13T11:33:49.473Z,14.10
2023-01-13T11:36:32.794Z,14.10
2023-01-13T11:39:12.749Z,14.00
2023-01-13T11:41:43.791Z,14.00
2023-01-13T11:44:38.700Z,14.00
2023-01-13T11:47:05.475Z,14.00
2023-01-13T11:49:33.735Z,14.00
2023-01-13T11:52:09.459Z,14.06
2023-01-13T11:55:09.973Z,14.10
2023-01-13T11:57:45.589Z,14.10
2023-01-13T12:00:15.547Z,14.10
2023-01-13T12:03:27.413Z,14.18
2023-01-13T12:05:58.799Z,14.20
2023-01-13T12:08:42.744Z,14.14
2023-01-13T12:11:18.686Z,14.10
2023-01-13T12:14:04.830Z,14.00
2023-01-13T12:16:32.920Z,13.90
2023-01-13T12:19:25.140Z,13.70
2023-01-13T12:21:57.783Z,13.60
2023-01-13T12:24:38.548Z,13.50
2023-01-13T12:27:31.608Z,13.40
2023-01-13T12:30:01.759Z,13.30
2023-01-13T12:32:36.353Z,13.30
2023-01-13T12:35:09.134Z,13.20
2023-01-13T12:37:39.453Z,13.10
2023-01-13T12:40:06.193Z,13.10
2023-01-13T12:43:07.076Z,12.96
2023-01-13T12:45:34.392Z,12.80
2023-01-13T12:48:01.338Z,12.70
2023-01-13T12:50:28.197Z,12.70
2023-01-13T12:53:34.041Z,12.70
2023-01-13T12:56:44.800Z,12.70
2023-01-13T12:59:19.190Z,12.76
2023-01-13T13:01:49.263Z,12.80
2023-01-13T13:04:41.533Z,12.80
2023-01-13T13:07:12.624Z,12.86
2023-01-13T13:09:53.408Z,12.88
2023-01-13T13:13:00.849Z,12.90
2023-01-13T13:15:37.254Z,12.88
2023-01-13T13:18:20.482Z,12.80
2023-01-13T13:21:09.773Z,12.86
2023-01-13T13:24:07.688Z,12.90
2023-01-13T13:26:40.005Z,12.90
2023-01-13T13:29:30.717Z,12.90
2023-01-13T13:32:21.967Z,12.90
2023-01-13T13:35:14.549Z,12.90
2023-01-13T13:38:18.718Z,12.90
2023-01-13T13:41:06.599Z,12.90
2023-01-13T13:43:59.475Z,12.80
2023-01-13T13:46:49.638Z,12.72
2023-01-13T13:49:19.337Z,12.70
2023-01-13T13:52:00.696Z,12.58
2023-01-13T13:54:28.189Z,12.60
2023-01-13T13:56:54.962Z,12.58
2023-01-13T13:59:24.840Z,12.60
2023-01-13T14:02:01.840Z,12.60
2023-01-13T14:04:32.604Z,12.58
2023-01-13T14:07:05.013Z,12.50
2023-01-13T14:09:42.043Z,12.42
2023-01-13T14:12:21.948Z,12.40
2023-01-13T14:14:49.823Z,12.36
2023-01-13T14:17:28.405Z,12.30
2023-01-13T14:20:02.712Z,12.20
2023-01-13T14:22:29.427Z,12.20
2023-01-13T14:24:57.887Z,12.10
2023-01-13T14:27:27.878Z,12.00
2023-01-13T14:29:58.159Z,11.96
2023-01-13T14:32:31.961Z,11.90
2023-01-13T14:34:58.623Z,11.88
2023-01-13T14:37:31.493Z,11.80
2023-01-13T14:39:58.436Z,11.80
2023-01-13T14:42:27.627Z,11.74
2023-01-13T14:44:56.262Z,11.70
2023-01-13T14:47:32.295Z,11.70
2023-01-13T14:50:11.147Z,11.60
2023-01-13T14:52:48.430Z,11.58
2023-01-13T14:55:29.452Z,11.50
2023-01-13T14:58:31.177Z,11.50
2023-01-13T15:01:26.268Z,11.40
2023-01-13T15:03:53.047Z,11.40
2023-01-13T15:06:25.631Z,11.30
2023-01-13T15:08:52.884Z,11.30
2023-01-13T15:11:26.663Z,11.20
2023-01-13T15:14:02.844Z,11.20
2023-01-13T15:16:33.830Z,11.20
2023-01-13T15:19:01.663Z,11.20
2023-01-13T15:21:28.370Z,11.20
2023-01-13T15:23:55.135Z,11.10
2023-01-13T15:26:24.193Z,11.10
2023-01-13T15:28:52.294Z,11.00
2023-01-13T15:31:19.487Z,11.00
2023-01-13T15:33:46.488Z,10.98
2023-01-13T15:36:20.092Z,10.90
2023-01-13T15:38:46.774Z,10.86
2023-01-13T15:41:13.980Z,10.80
2023-01-13T15:43:59.743Z,10.70
2023-01-13T15:46:38.928Z,10.70
2023-01-13T15:49:17.105Z,10.70
2023-01-13T15:51:44.565Z,10.70
2023-01-13T15:54:12.152Z,10.70
2023-01-13T15:56:39.384Z,10.70
2023-01-13T15:59:16.445Z,10.70
2023-01-13T16:01:43.514Z,10.70
2023-01-13T16:04:10.754Z,10.60
2023-01-13T16:06:37.443Z,10.60
2023-01-13T16:09:05.572Z,10.56
2023-01-13T16:11:32.511Z,10.50
2023-01-13T16:13:59.486Z,10.50
2023-01-13T16:16:28.633Z,10.40
2023-01-13T16:18:56.109Z,10.40
2023-01-13T16:21:23.476Z,10.40
2023-01-13T16:23:51.935Z,10.50
2023-01-13T16:26:30.107Z,10.50
2023-01-13T16:28:58.047Z,10.50
2023-01-13T16:31:32.464Z,10.60
2023-01-13T16:34:01.312Z,10.60
2023-01-13T16:36:30.235Z,10.60
2023-01-13T16:38:57.161Z,10.68
2023-01-13T16:41:26.937Z,10.66
2023-01-13T16:43:54.111Z,10.70
2023-01-13T16:46:29.389Z,10.70
2023-01-13T16:48:58.102Z,10.80
2023-01-13T16:51:24.962Z,10.90
2023-01-13T16:53:52.059Z,10.88
2023-01-13T16:56:22.643Z,10.80
2023-01-13T16:58:50.095Z,10.70
2023-01-13T17:01:28.403Z,10.50
2023-01-13T17:03:56.301Z,10.30
2023-01-13T17:06:35.933Z,10.10
2023-01-13T17:09:06.914Z,9.92
2023-01-13T17:11:34.328Z,9.80
2023-01-13T17:14:08.966Z,9.72
2023-01-13T17:16:46.963Z,9.62
2023-01-13T17:19:14.163Z,9.60
2023-01-13T17:21:41.245Z,9.50
2023-01-13T17:24:09.794Z,9.50
2023-01-13T17:26:42.657Z,9.40
2023-01-13T17:29:15.283Z,9.40
2023-01-13T17:31:42.156Z,9.32
2023-01-13T17:34:11.638Z,9.30
2023-01-13T17:36:39.243Z,9.30
2023-01-13T17:39:07.379Z,9.30
2023-01-13T17:41:34.107Z,9.30
2023-01-13T17:44:02.186Z,9.20
2023-01-13T17:46:29.359Z,9.20
2023-01-13T17:48:56.704Z,9.20
2023-01-13T17:51:25.576Z,9.20
2023-01-13T17:53:53.935Z,9.20
2023-01-13T17:56:21.411Z,9.20
2023-01-13T17:58:49.117Z,9.20
2023-01-13T18:01:21.417Z,9.20
2023-01-13T18:03:49.307Z,9.20
2023-01-13T18:06:22.580Z,9.10
2023-01-13T18:08:50.357Z,9.10
2023-01-13T18:11:19.434Z,9.00
2023-01-13T18:13:50.110Z,9.00
2023-01-13T18:16:19.214Z,8.90
2023-01-13T18:18:48.258Z,8.90
2023-01-13T18:21:40.944Z,8.80
2023-01-13T18:24:34.793Z,8.80
2023-01-13T18:27:22.942Z,8.80
2023-01-13T18:29:55.207Z,8.80
2023-01-13T18:32:24.440Z,8.80
2023-01-13T18:35:01.648Z,8.80
2023-01-13T18:37:35.393Z,8.80
2023-01-13T18:40:02.497Z,8.80
2023-01-13T18:42:48.231Z,8.80
2023-01-13T18:45:15.876Z,8.70
2023-01-13T18:47:42.698Z,8.70
2023-01-13T18:50:13.735Z,8.70
2023-01-13T18:52:41.440Z,8.62
2023-01-13T18:55:08.956Z,8.60
2023-01-13T18:57:43.105Z,8.50
2023-01-13T19:00:12.854Z,8.50
2023-01-13T19:02:40.054Z,8.40
2023-01-13T19:05:07.522Z,8.42
2023-01-13T19:07:35.924Z,8.40
2023-01-13T19:10:05.038Z,8.40
2023-01-13T19:12:33.880Z,8.40
2023-01-13T19:15:02.173Z,8.38
2023-01-13T19:17:34.880Z,8.40
2023-01-13T19:20:02.515Z,8.40
2023-01-13T19:22:32.949Z,8.40
2023-01-13T19:25:02.171Z,8.40
2023-01-13T19:27:30.258Z,8.40
2023-01-13T19:30:00.841Z,8.40
2023-01-13T19:32:31.372Z,8.40
2023-01-13T19:34:59.986Z,8.48
2023-01-13T19:37:30.763Z,8.50
2023-01-13T19:39:59.367Z,8.50
2023-01-13T19:42:45.570Z,8.50
2023-01-13T19:45:31.331Z,8.60
2023-01-13T19:48:02.096Z,8.60
2023-01-13T19:50:29.550Z,8.60
2023-01-13T19:52:57.390Z,8.60
2023-01-13T19:55:24.738Z,8.62
2023-01-13T19:57:51.922Z,8.68
2023-01-13T20:00:21.144Z,8.70
2023-01-13T20:02:52.202Z,8.70
2023-01-13T20:05:22.954Z,8.80
2023-01-13T20:07:51.106Z,8.76
2023-01-13T20:10:20.862Z,8.72
2023-01-13T20:12:48.661Z,8.70
2023-01-13T20:15:16.345Z,8.70
2023-01-13T20:17:43.219Z,8.64
2023-01-13T20:20:12.135Z,8.60
2023-01-13T20:22:40.104Z,8.60
2023-01-13T20:25:09.048Z,8.60
2023-01-13T20:27:36.778Z,8.60
2023-01-13T20:30:05.876Z,8.60
2023-01-13T20:32:34.441Z,8.60
2023-01-13T20:35:01.165Z,8.70
2023-01-13T20:37:28.240Z,8.70
2023-01-13T20:39:57.612Z,8.70
2023-01-13T20:42:31.280Z,8.70
2023-01-13T20:44:59.811Z,8.78
2023-01-13T20:47:28.691Z,8.80
2023-01-13T20:49:56.597Z,8.80
2023-01-13T20:52:24.242Z,8.90
2023-01-13T20:54:51.613Z,8.82
2023-01-13T20:57:18.930Z,8.80
2023-01-13T20:59:46.310Z,8.80
2023-01-13T21:02:15.406Z,8.80
2023-01-13T21:04:43.036Z,8.78
2023-01-13T21:07:10.290Z,8.70
2023-01-13T21:09:37.202Z,8.70
2023-01-13T21:12:24.633Z,8.60
2023-01-13T21:15:10.135Z,8.50
2023-01-13T21:17:55.908Z,8.30
2023-01-13T21:20:22.613Z,8.16
2023-01-13T21:22:49.765Z,8.04
2023-01-13T21:25:17.873Z,8.00
2023-01-13T21:27:44.726Z,7.90
2023-01-13T21:30:15.834Z,7.86
2023-01-13T21:32:44.417Z,7.80
2023-01-13T21:35:12.424Z,7.80
2023-01-13T21:37:40.520Z,7.80
2023-01-13T21:40:10.312Z,7.80
2023-01-13T21:42:55.883Z,7.80
2023-01-13T21:45:41.727Z,7.80
2023-01-13T21:48:08.881Z,7.80
2023-01-13T21:50:38.258Z,7.80
2023-01-13T21:53:05.419Z,7.70
2023-01-13T21:55:32.994Z,7.70
2023-01-13T21:58:14.261Z,7.70
2023-01-13T22:00:43.897Z,7.70
2023-01-13T22:03:12.988Z,7.70
2023-01-13T22:05:40.157Z,7.60
2023-01-13T22:08:08.137Z,7.60
2023-01-13T22:10:35.080Z,7.50
2023-01-13T22:13:22.904Z,7.50
2023-01-13T22:15:49.858Z,7.40
2023-01-13T22:18:18.394Z,7.40
2023-01-13T22:20:45.774Z,7.30
2023-01-13T22:23:12.514Z,7.30
2023-01-13T22:25:39.375Z,7.20
2023-01-13T22:28:08.778Z,7.20
2023-01-13T22:30:35.606Z,7.18
2023-01-13T22:33:02.255Z,7.10
2023-01-13T22:35:29.016Z,7.10
2023-01-13T22:37:55.749Z,7.10
2023-01-13T22:40:22.548Z,7.00
2023-01-13T22:42:49.217Z,7.00
2023-01-13T22:45:16.059Z,6.92
2023-01-13T22:47:42.902Z,6.86
2023-01-13T22:50:10.377Z,6.80
2023-01-13T22:52:37.158Z,6.70
2023-01-13T22:55:06.908Z,6.60
2023-01-13T22:57:36.545Z,6.60
2023-01-13T23:00:10.729Z,6.50
2023-01-13T23:02:40.499Z,6.50
2023-01-13T23:05:07.694Z,6.40
2023-01-13T23:07:35.665Z,6.40
2023-01-13T23:10:02.938Z,6.38
2023-01-13T23:12:29.613Z,6.30
2023-01-13T23:14:56.297Z,6.28
2023-01-13T23:17:23.032Z,6.20
2023-01-13T23:19:49.770Z,6.20
2023-01-13T23:22:16.441Z,6.10
2023-01-13T23:24:43.135Z,6.10
2023-01-13T23:27:09.892Z,6.10
2023-01-13T23:29:36.836Z,6.00
2023-01-13T23:32:03.685Z,6.00
2023-01-13T23:34:30.413Z,5.94
2023-01-13T23:36:57.156Z,5.90
2023-01-13T23:39:24.755Z,5.90
2023-01-13T23:41:51.461Z,5.90
2023-01-13T23:44:18.189Z,5.92
2023-01-13T23:46:44.877Z,6.00
2023-01-13T23:49:11.705Z,6.08
2023-01-13T23:51:38.668Z,6.10
2023-01-13T23:54:05.347Z,6.20
2023-01-13T23:56:32.086Z,6.30
2023-01-13T23:58:59.161Z,6.32
